Time;durP1;ratioP1;P1;durP2;ratioP2;P2;SDS_P1;SDS_P2;PMS_P1;PMS_P2;Temp;Humidity;BMP_temperature;BMP_pressure;BME280_temperature;BME280_humidity;BME280_pressure;Samples;Min_cycle;Max_cycle;Signal;HPM_P1;HPM_P2
2022/07/13 00:00:01;;;;;;;3.53;0.90;;;11.60;99.90;;;;;;5075922;28;20374;-82
2022/07/13 00:02:28;;;;;;;2.17;0.90;;;11.50;99.90;;;;;;5076011;28;20381;-81
2022/07/13 00:04:55;;;;;;;1.83;0.98;;;11.50;99.90;;;;;;5075909;28;20423;-80
2022/07/13 00:07:22;;;;;;;1.98;0.70;;;11.60;99.90;;;;;;5075741;28;20497;-80
2022/07/13 00:09:49;;;;;;;1.37;0.70;;;11.60;99.90;;;;;;5077733;28;20435;-79
2022/07/13 00:12:16;;;;;;;1.52;0.63;;;11.70;99.90;;;;;;5079190;28;20386;-82
2022/07/13 00:14:43;;;;;;;1.50;0.80;;;11.90;99.90;;;;;;5077123;28;20370;-85
2022/07/13 00:17:10;;;;;;;1.58;0.60;;;12.10;99.90;;;;;;5076293;28;20468;-85
2022/07/13 00:19:37;;;;;;;2.30;0.73;;;12.10;99.90;;;;;;5074802;28;20427;-85
2022/07/13 00:22:05;;;;;;;1.50;0.70;;;12.30;99.90;;;;;;5075985;28;20370;-84
2022/07/13 00:24:32;;;;;;;1.23;0.80;;;12.30;99.90;;;;;;5075546;28;20365;-82
2022/07/13 00:26:59;;;;;;;1.73;0.63;;;12.20;99.90;;;;;;5075471;28;20412;-81
2022/07/13 00:29:28;;;;;;;1.15;0.70;;;12.20;99.90;;;;;;5074384;28;20382;-83
2022/07/13 00:31:55;;;;;;;4.20;0.60;;;12.40;99.90;;;;;;5076186;28;20396;-82
2022/07/13 00:37:44;;;;;;;2.70;0.50;;;12.80;99.90;;;;;;5075569;28;20377;-87
2022/07/13 00:40:12;;;;;;;1.17;0.52;;;12.90;99.90;;;;;;5075116;28;20412;-81
2022/07/13 00:42:39;;;;;;;1.52;0.68;;;12.90;99.90;;;;;;5075181;28;20412;-85
2022/07/13 00:45:07;;;;;;;2.22;1.02;;;12.80;99.90;;;;;;5075172;28;20843;-81
2022/07/13 00:47:35;;;;;;;1.48;0.73;;;12.90;99.90;;;;;;5074909;28;20450;-80
2022/07/13 00:50:06;;;;;;;0.90;0.63;;;12.80;99.90;;;;;;5075174;28;20376;-81
2022/07/13 00:52:38;;;;;;;1.40;0.50;;;12.80;99.90;;;;;;5074775;28;20458;-81
2022/07/13 00:55:09;;;;;;;1.20;0.50;;;12.90;99.90;;;;;;5075067;28;20873;-84
2022/07/13 00:57:38;;;;;;;0.73;0.60;;;13.10;99.90;;;;;;5074715;28;20917;-82
2022/07/13 01:00:09;;;;;;;1.60;0.50;;;13.30;99.90;;;;;;5075647;28;20733;-83
2022/07/13 01:02:37;;;;;;;0.70;0.50;;;13.50;99.30;;;;;;5074831;28;20757;-82
2022/07/13 01:05:05;;;;;;;0.87;0.40;;;13.20;99.00;;;;;;5074496;28;20438;-84
2022/07/13 01:07:33;;;;;;;2.70;0.60;;;13.00;99.90;;;;;;5074558;28;20900;-81
2022/07/13 01:10:08;;;;;;;1.40;0.55;;;13.00;99.90;;;;;;5074413;28;20746;-82
2022/07/13 01:12:37;;;;;;;1.10;0.50;;;12.90;99.90;;;;;;5074613;28;20837;-82
2022/07/13 01:15:09;;;;;;;1.40;0.50;;;12.80;99.90;;;;;;5074345;28;20378;-81
2022/07/13 01:17:37;;;;;;;1.80;0.52;;;12.80;99.90;;;;;;5074542;28;20381;-81
2022/07/13 01:20:06;;;;;;;1.90;0.60;;;12.70;99.90;;;;;;5075312;28;20366;-81
2022/07/13 01:22:37;;;;;;;2.00;0.65;;;12.60;99.90;;;;;;5076237;28;20374;-82
2022/07/13 01:25:05;;;;;;;1.52;0.60;;;12.60;99.90;;;;;;5075248;28;20366;-84
2022/07/13 01:27:36;;;;;;;1.95;0.70;;;12.60;99.90;;;;;;5075493;28;20472;-82
2022/07/13 01:30:05;;;;;;;1.50;0.77;;;12.90;99.90;;;;;;5075419;28;20420;-83
2022/07/13 01:32:47;;;;;;;1.42;0.60;;;13.20;99.90;;;;;;5075015;28;20412;-83
2022/07/13 01:35:15;;;;;;;1.55;0.50;;;13.30;99.60;;;;;;5074314;28;20375;-83
2022/07/13 01:37:44;;;;;;;1.10;0.50;;;13.60;99.50;;;;;;5073980;28;20411;-83
2022/07/13 01:40:13;;;;;;;2.72;0.70;;;13.70;99.90;;;;;;5073912;28;20416;-83
2022/07/13 01:42:48;;;;;;;2.15;0.90;;;13.70;98.90;;;;;;5073128;28;20426;-82
2022/07/13 01:45:17;;;;;;;4.75;1.25;;;14.00;98.60;;;;;;5073848;28;20444;-83
2022/07/13 01:47:48;;;;;;;3.95;1.00;;;14.20;98.10;;;;;;5073575;28;20509;-83
2022/07/13 01:50:16;;;;;;;2.60;1.00;;;14.30;97.50;;;;;;5074053;28;20365;-83
2022/07/13 01:52:44;;;;;;;2.87;1.27;;;14.40;96.10;;;;;;5073664;28;20843;-83
2022/07/13 01:55:13;;;;;;;4.80;1.15;;;14.20;96.10;;;;;;5073617;28;20381;-84
2022/07/13 01:57:40;;;;;;;3.60;0.80;;;14.20;97.10;;;;;;5073527;28;20370;-83
2022/07/13 02:00:10;;;;;;;2.70;1.20;;;14.10;95.60;;;;;;5073667;28;20378;-85
2022/07/13 02:02:38;;;;;;;2.97;0.80;;;14.00;96.20;;;;;;5073971;28;20362;-84
2022/07/13 02:05:06;;;;;;;1.08;0.70;;;13.90;96.20;;;;;;5073316;28;20382;-85
2022/07/13 02:07:33;;;;;;;2.07;0.90;;;13.90;96.30;;;;;;5073297;28;20381;-82
2022/07/13 02:10:00;;;;;;;3.25;0.70;;;14.00;96.00;;;;;;5072781;28;20400;-83
2022/07/13 02:12:27;;;;;;;2.30;0.80;;;14.10;95.80;;;;;;5073287;28;20482;-83
2022/07/13 02:14:54;;;;;;;3.30;0.90;;;14.30;94.80;;;;;;5073129;28;20915;-83
2022/07/13 02:17:21;;;;;;;1.65;0.80;;;14.30;95.60;;;;;;5073287;28;20812;-82
2022/07/13 02:19:48;;;;;;;1.30;0.53;;;14.40;94.10;;;;;;5073076;28;20382;-83
2022/07/13 02:22:16;;;;;;;1.95;1.10;;;14.40;93.80;;;;;;5073156;28;20801;-82
2022/07/13 02:24:43;;;;;;;2.60;0.73;;;14.50;94.30;;;;;;5072825;28;20449;-84
2022/07/13 02:27:10;;;;;;;1.92;0.70;;;14.40;93.30;;;;;;5072718;28;20409;-83
2022/07/13 02:29:37;;;;;;;2.97;0.80;;;14.30;94.40;;;;;;5072707;28;20398;-82
2022/07/13 02:32:06;;;;;;;1.80;0.82;;;14.50;94.30;;;;;;5072711;28;20401;-82
2022/07/13 02:34:33;;;;;;;3.53;0.90;;;14.60;93.20;;;;;;5072542;28;20921;-82
2022/07/13 02:37:00;;;;;;;1.77;0.50;;;14.60;93.30;;;;;;5072915;28;20367;-83
2022/07/13 02:39:27;;;;;;;2.80;0.60;;;14.70;93.10;;;;;;5072756;28;20377;-83
2022/07/13 02:41:54;;;;;;;2.80;0.80;;;14.60;93.30;;;;;;5072634;28;20385;-84
2022/07/13 02:44:21;;;;;;;5.70;0.70;;;14.70;92.90;;;;;;5072492;28;20442;-80
2022/07/13 02:46:48;;;;;;;1.17;0.60;;;15.10;92.80;;;;;;5072578;28;20923;-82
2022/07/13 02:49:16;;;;;;;1.95;0.50;;;15.00;91.90;;;;;;5072525;28;20725;-82
2022/07/13 02:51:43;;;;;;;1.30;0.52;;;14.90;91.50;;;;;;5072603;28;20504;-82
2022/07/13 02:54:10;;;;;;;2.63;0.55;;;15.00;92.70;;;;;;5072512;28;20419;-81
2022/07/13 02:56:37;;;;;;;1.90;0.60;;;15.00;91.90;;;;;;5072835;28;20473;-81
2022/07/13 02:59:04;;;;;;;2.15;0.85;;;15.10;91.50;;;;;;5072460;28;20397;-82
2022/07/13 03:01:31;;;;;;;1.58;0.98;;;15.20;91.10;;;;;;5072115;28;20379;-81
2022/07/13 03:03:58;;;;;;;2.60;1.02;;;15.30;92.10;;;;;;5072331;28;20370;-84
2022/07/13 03:06:25;;;;;;;2.50;1.40;;;15.30;91.40;;;;;;5072960;28;20402;-84
2022/07/13 03:08:52;;;;;;;1.52;0.63;;;15.20;91.50;;;;;;5073056;28;20461;-83
2022/07/13 03:11:20;;;;;;;1.65;0.60;;;15.10;92.40;;;;;;5074495;28;20406;-85
2022/07/13 03:13:47;;;;;;;1.52;0.60;;;15.20;92.50;;;;;;5074596;28;20374;-81
2022/07/13 03:16:14;;;;;;;1.70;0.60;;;15.30;91.80;;;;;;5072717;28;20373;-82
2022/07/13 03:18:41;;;;;;;3.20;0.60;;;15.30;91.40;;;;;;5072557;28;20420;-82
2022/07/13 03:21:09;;;;;;;2.28;0.60;;;15.30;91.80;;;;;;5071986;28;20451;-82
2022/07/13 03:23:37;;;;;;;1.58;0.52;;;15.20;90.80;;;;;;5072261;28;20370;-84
2022/07/13 03:26:04;;;;;;;2.00;0.85;;;15.30;92.00;;;;;;5072214;28;20398;-85
2022/07/13 03:28:31;;;;;;;2.83;1.40;;;15.30;90.60;;;;;;5072231;28;20462;-84
2022/07/13 03:30:58;;;;;;;1.30;0.60;;;15.30;90.20;;;;;;5072052;28;20520;-82
2022/07/13 03:33:25;;;;;;;13.65;2.13;;;15.00;90.10;;;;;;5072296;28;20402;-83
2022/07/13 03:35:52;;;;;;;6.70;1.17;;;14.90;91.00;;;;;;5072204;28;20467;-82
2022/07/13 03:38:19;;;;;;;3.00;1.20;;;14.90;91.30;;;;;;5072150;28;20846;-83
2022/07/13 03:40:47;;;;;;;4.07;1.60;;;14.80;90.50;;;;;;5072066;28;20382;-83
2022/07/13 03:43:14;;;;;;;1.97;0.97;;;15.00;87.70;;;;;;5072073;28;20462;-82
2022/07/13 03:45:42;;;;;;;2.90;0.80;;;15.00;88.10;;;;;;5072180;28;20413;-83
2022/07/13 03:48:09;;;;;;;1.35;0.50;;;15.20;88.70;;;;;;5071909;28;20425;-84
2022/07/13 03:50:36;;;;;;;2.15;0.60;;;15.20;85.50;;;;;;5071967;28;20456;-83
2022/07/13 03:53:03;;;;;;;9.75;1.20;;;15.00;86.40;;;;;;5071922;28;20862;-82
2022/07/13 03:55:31;;;;;;;15.65;1.17;;;14.90;87.80;;;;;;5071825;28;20393;-82
2022/07/13 03:57:58;;;;;;;5.73;1.00;;;14.90;85.70;;;;;;5072178;28;20374;-81
2022/07/13 04:00:28;;;;;;;6.30;1.02;;;14.80;85.50;;;;;;5072208;28;20841;-83
2022/07/13 04:02:56;;;;;;;5.53;0.77;;;14.70;87.30;;;;;;5071581;28;20378;-82
2022/07/13 04:05:23;;;;;;;2.72;0.80;;;14.70;90.30;;;;;;5071647;28;20928;-83
2022/07/13 04:07:50;;;;;;;9.50;0.90;;;14.80;90.30;;;;;;5071750;28;20459;-83
2022/07/13 04:10:21;;;;;;;5.07;0.70;;;14.80;87.80;;;;;;5071711;28;20366;-82
2022/07/13 04:12:49;;;;;;;5.95;0.90;;;14.80;88.30;;;;;;5071861;28;20869;-81
2022/07/13 04:15:17;;;;;;;8.88;0.80;;;14.80;88.40;;;;;;5072275;28;20377;-82
2022/07/13 04:17:44;;;;;;;6.50;0.90;;;14.90;88.10;;;;;;5071969;28;20401;-82
2022/07/13 04:20:12;;;;;;;3.70;0.70;;;15.00;88.40;;;;;;5072036;28;20472;-82
2022/07/13 04:22:39;;;;;;;9.13;0.88;;;15.00;88.60;;;;;;5071699;28;20406;-82
2022/07/13 04:25:07;;;;;;;4.38;0.70;;;15.00;86.60;;;;;;5071676;28;20374;-83
2022/07/13 04:27:34;;;;;;;2.00;0.50;;;15.00;87.00;;;;;;5071983;28;20409;-83
2022/07/13 04:30:02;;;;;;;1.58;0.70;;;14.80;88.40;;;;;;5071580;28;20409;-82
2022/07/13 04:32:29;;;;;;;1.60;0.47;;;14.80;87.70;;;;;;5074480;28;20393;-83
2022/07/13 04:34:56;;;;;;;3.10;0.70;;;14.80;89.10;;;;;;5075149;28;20473;-83
2022/07/13 04:37:23;;;;;;;2.67;0.80;;;15.00;89.10;;;;;;5075100;28;20778;-83
2022/07/13 04:39:50;;;;;;;2.90;0.60;;;15.30;87.50;;;;;;5075158;28;20378;-85
2022/07/13 04:42:17;;;;;;;2.60;0.60;;;15.70;85.00;;;;;;5077359;28;20524;-84
2022/07/13 04:44:45;;;;;;;0.85;0.60;;;16.10;85.60;;;;;;5075219;28;20447;-85
2022/07/13 04:47:12;;;;;;;0.55;0.40;;;16.40;81.80;;;;;;5074932;28;20405;-84
2022/07/13 04:49:39;;;;;;;5.57;0.80;;;17.00;79.00;;;;;;5075009;28;20545;-84
2022/07/13 04:52:06;;;;;;;12.13;1.23;;;17.50;76.40;;;;;;5074869;28;20381;-85
2022/07/13 04:54:33;;;;;;;5.80;1.00;;;17.70;75.00;;;;;;5073542;28;20901;-84
2022/07/13 04:57:00;;;;;;;2.72;0.68;;;17.50;72.10;;;;;;5075063;28;20410;-84
2022/07/13 04:59:27;;;;;;;6.18;0.70;;;17.00;73.30;;;;;;5074842;28;20374;-84
2022/07/13 05:01:54;;;;;;;3.13;0.50;;;16.50;75.10;;;;;;5074717;28;20386;-85
2022/07/13 05:04:21;;;;;;;5.55;0.75;;;16.20;76.10;;;;;;5074580;28;20396;-85
2022/07/13 05:06:48;;;;;;;2.60;0.50;;;16.10;77.40;;;;;;5074597;28;20946;-87
2022/07/13 05:09:15;;;;;;;4.40;0.60;;;15.80;79.00;;;;;;5074611;28;20385;-82
2022/07/13 05:11:43;;;;;;;4.18;0.68;;;15.50;79.00;;;;;;5074657;28;20381;-84
2022/07/13 05:17:32;;;;;;;0.57;0.50;;;15.20;82.10;;;;;;5074169;28;20813;-81
2022/07/13 05:19:59;;;;;;;2.05;0.60;;;14.80;83.40;;;;;;5075084;28;20726;-87
2022/07/13 05:22:26;;;;;;;1.90;0.70;;;14.70;86.30;;;;;;5074324;28;20374;-88
2022/07/13 05:28:15;;;;;;;0.80;0.60;;;14.60;85.50;;;;;;5074465;28;20734;-84
2022/07/13 05:30:42;;;;;;;1.52;0.65;;;14.70;86.10;;;;;;5074276;28;20362;-84
2022/07/13 05:33:09;;;;;;;1.63;0.50;;;14.80;85.70;;;;;;5073911;28;20535;-83
2022/07/13 05:35:36;;;;;;;1.10;0.60;;;14.70;86.10;;;;;;5074488;28;20398;-88
2022/07/13 05:38:03;;;;;;;0.88;0.50;;;14.70;86.90;;;;;;5074203;28;20460;-83
2022/07/13 05:40:30;;;;;;;0.53;0.40;;;14.70;86.90;;;;;;5074258;28;20374;-87
2022/07/13 05:42:57;;;;;;;0.60;0.55;;;14.60;86.20;;;;;;5073084;28;20386;-85
2022/07/13 05:45:25;;;;;;;1.40;0.60;;;14.60;87.80;;;;;;5074026;28;20451;-84
2022/07/13 05:47:55;;;;;;;1.70;0.60;;;14.50;89.20;;;;;;5074581;28;20378;-87
2022/07/13 05:50:23;;;;;;;0.80;0.60;;;14.40;90.00;;;;;;5075955;28;20365;-91
2022/07/13 05:52:51;;;;;;;4.40;0.85;;;14.30;90.40;;;;;;5085213;28;20525;-84
2022/07/13 05:55:18;;;;;;;2.83;0.70;;;14.20;90.60;;;;;;5079289;28;20454;-87
2022/07/13 05:57:45;;;;;;;4.95;0.80;;;14.20;90.90;;;;;;5075136;28;20894;-86
2022/07/13 06:00:14;;;;;;;4.55;1.05;;;14.10;91.50;;;;;;5074990;28;20830;-95
2022/07/13 06:02:42;;;;;;;8.15;1.10;;;14.10;91.80;;;;;;5074555;28;20383;-86
2022/07/13 06:08:31;;;;;;;1.70;0.70;;;13.90;91.50;;;;;;5075683;28;20396;-84
2022/07/13 06:11:00;;;;;;;4.20;0.88;;;13.90;91.60;;;;;;5078471;28;20366;-85
2022/07/13 06:13:27;;;;;;;2.42;0.68;;;13.80;92.40;;;;;;5079690;28;20389;-83
2022/07/13 06:15:57;;;;;;;4.18;0.70;;;13.80;91.90;;;;;;5077340;28;20370;-88
2022/07/13 06:18:24;;;;;;;0.70;0.60;;;13.70;92.40;;;;;;5074485;28;20370;-90
2022/07/13 06:20:51;;;;;;;2.17;0.70;;;13.70;92.50;;;;;;5074558;28;20371;-84
2022/07/13 06:23:20;;;;;;;6.60;0.80;;;13.70;92.80;;;;;;5074243;28;20375;-85
2022/07/13 06:25:47;;;;;;;3.10;0.88;;;13.60;93.30;;;;;;5073652;28;20428;-88
2022/07/13 06:28:14;;;;;;;2.50;0.80;;;13.60;93.50;;;;;;5073739;28;20457;-86
2022/07/13 06:30:41;;;;;;;45.70;4.10;;;13.50;94.00;;;;;;5073771;28;20464;-87
2022/07/13 06:33:08;;;;;;;5.35;0.80;;;13.50;93.90;;;;;;5073522;28;20422;-88
2022/07/13 06:35:36;;;;;;;1.85;0.60;;;13.40;94.30;;;;;;5073448;28;20445;-87
2022/07/13 06:38:03;;;;;;;2.60;0.70;;;13.30;94.60;;;;;;5073257;28;20382;-87
2022/07/13 06:40:30;;;;;;;2.55;0.70;;;13.40;94.40;;;;;;5074220;28;20385;-87
2022/07/13 06:42:57;;;;;;;2.25;0.70;;;13.40;95.00;;;;;;5074457;28;20366;-88
2022/07/13 06:45:25;;;;;;;1.10;0.70;;;13.30;94.50;;;;;;5072892;28;20382;-84
2022/07/13 06:47:52;;;;;;;0.70;0.70;;;13.30;94.40;;;;;;5073250;28;20394;-88
2022/07/13 06:50:20;;;;;;;3.50;1.73;;;13.30;95.00;;;;;;5072924;28;20449;-87
2022/07/13 06:52:48;;;;;;;2.05;0.60;;;13.20;95.20;;;;;;5073856;28;20449;-91
2022/07/13 06:55:15;;;;;;;1.02;0.70;;;13.10;94.50;;;;;;5072320;28;20413;-83
2022/07/13 06:57:42;;;;;;;1.40;0.82;;;13.10;94.70;;;;;;5072487;28;20382;-82
2022/07/13 07:00:10;;;;;;;1.98;1.20;;;13.10;94.70;;;;;;5072666;28;20389;-83
2022/07/13 07:02:40;;;;;;;1.38;1.10;;;13.00;94.40;;;;;;5072962;28;20385;-85
2022/07/13 07:05:09;;;;;;;1.08;0.60;;;13.00;95.30;;;;;;5074395;28;20903;-82
2022/07/13 07:07:38;;;;;;;1.88;0.60;;;12.90;95.20;;;;;;5072495;28;20406;-82
2022/07/13 07:10:06;;;;;;;1.90;0.60;;;12.80;95.40;;;;;;5072867;28;20367;-88
2022/07/13 07:12:33;;;;;;;1.90;0.80;;;12.70;96.00;;;;;;5072630;28;20496;-83
2022/07/13 07:15:01;;;;;;;1.40;0.60;;;12.60;96.50;;;;;;5072927;28;20913;-84
2022/07/13 07:17:28;;;;;;;1.45;0.80;;;12.50;96.90;;;;;;5072728;28;20378;-82
2022/07/13 07:20:06;;;;;;;3.65;0.90;;;12.40;97.10;;;;;;5072639;28;20727;-84
2022/07/13 07:22:34;;;;;;;0.93;0.80;;;12.30;97.80;;;;;;5072138;28;20408;-82
2022/07/13 07:25:01;;;;;;;2.90;0.90;;;12.20;98.20;;;;;;5072404;28;20832;-82
2022/07/13 07:27:28;;;;;;;1.05;0.70;;;12.20;98.70;;;;;;5072016;28;20401;-81
2022/07/13 07:29:55;;;;;;;1.63;0.80;;;12.10;99.20;;;;;;5072847;28;20388;-84
2022/07/13 07:32:22;;;;;;;0.82;0.80;;;12.00;99.30;;;;;;5072205;28;20416;-80
2022/07/13 07:34:50;;;;;;;2.07;0.80;;;12.00;99.70;;;;;;5072836;28;20386;-81
2022/07/13 07:37:20;;;;;;;1.95;0.63;;;11.90;99.90;;;;;;5072006;28;20428;-86
2022/07/13 07:39:48;;;;;;;0.82;0.63;;;11.80;99.90;;;;;;5072405;28;20368;-86
2022/07/13 07:42:15;;;;;;;1.80;0.70;;;11.80;99.90;;;;;;5072934;28;20382;-82
2022/07/13 07:44:43;;;;;;;1.95;0.70;;;11.80;99.90;;;;;;5072074;28;20370;-83
2022/07/13 07:47:10;;;;;;;2.55;1.00;;;11.80;99.90;;;;;;5071564;28;20440;-82
2022/07/13 07:49:37;;;;;;;0.73;0.70;;;11.90;99.90;;;;;;5072174;28;20374;-83
2022/07/13 07:52:04;;;;;;;2.25;0.88;;;11.80;99.90;;;;;;5071843;28;20456;-82
2022/07/13 07:54:31;;;;;;;1.10;0.80;;;11.90;99.90;;;;;;5071475;28;20378;-83
2022/07/13 07:57:02;;;;;;;1.70;0.90;;;11.80;99.90;;;;;;5072139;28;20401;-82
2022/07/13 07:59:29;;;;;;;3.00;1.40;;;11.80;99.90;;;;;;5071999;28;20416;-82
2022/07/13 08:01:56;;;;;;;1.30;0.93;;;11.70;99.90;;;;;;5071556;28;20363;-82
2022/07/13 08:04:24;;;;;;;1.40;0.90;;;11.70;99.90;;;;;;5071694;28;20370;-83
2022/07/13 08:06:51;;;;;;;0.80;0.80;;;11.70;99.90;;;;;;5072789;28;20412;-80
2022/07/13 08:09:18;;;;;;;1.80;0.90;;;11.70;99.90;;;;;;5075589;28;20369;-81
2022/07/13 08:11:45;;;;;;;1.88;1.13;;;11.60;99.90;;;;;;5075527;28;20741;-83
2022/07/13 08:14:12;;;;;;;1.60;1.00;;;11.60;99.90;;;;;;5075538;28;20374;-82
2022/07/13 08:16:40;;;;;;;1.67;1.00;;;11.50;99.90;;;;;;5075699;28;20929;-83
2022/07/13 08:19:07;;;;;;;3.40;0.95;;;11.40;99.90;;;;;;5075385;28;20378;-89
2022/07/13 08:21:34;;;;;;;2.13;0.98;;;11.40;99.90;;;;;;5075530;28;20449;-83
2022/07/13 08:24:02;;;;;;;1.48;1.17;;;11.30;99.90;;;;;;5075155;28;20378;-83
2022/07/13 08:26:30;;;;;;;1.30;1.20;;;11.30;99.90;;;;;;5075086;28;20412;-87
2022/07/13 08:28:59;;;;;;;2.40;1.20;;;11.20;99.90;;;;;;5073823;28;20396;-82
2022/07/13 08:31:26;;;;;;;2.30;1.10;;;11.20;99.90;;;;;;5074812;28;20453;-82
2022/07/13 08:39:28;;;;;;;1.48;0.90;;;11.30;99.90;;;;;;5013463;28;20379;-82
2022/07/13 08:42:00;;;;;;;0.90;0.90;;;11.30;99.90;;;;;;5013096;28;20856;-83
2022/07/13 08:47:49;;;;;;;1.40;1.30;;;11.10;99.90;;;;;;5013937;28;20495;-82
2022/07/13 08:50:19;;;;;;;1.83;1.30;;;11.00;99.90;;;;;;5013217;28;20386;-79
2022/07/13 08:52:47;;;;;;;3.13;1.60;;;11.00;99.90;;;;;;5013250;28;20383;-84
2022/07/13 08:55:14;;;;;;;2.35;1.60;;;11.00;99.90;;;;;;4996729;28;20465;-81
2022/07/13 08:57:42;;;;;;;1.45;1.30;;;11.10;99.90;;;;;;5013597;28;20392;-86
2022/07/13 09:00:13;;;;;;;1.63;1.10;;;11.10;99.90;;;;;;5012986;28;20403;-82
2022/07/13 09:02:41;;;;;;;2.80;1.20;;;11.20;99.90;;;;;;5012988;28;20387;-86
2022/07/13 09:05:10;;;;;;;2.00;1.20;;;11.20;99.90;;;;;;5013086;28;20375;-90
2022/07/13 09:07:37;;;;;;;2.88;1.20;;;11.10;99.90;;;;;;4996431;28;20407;-82
2022/07/13 09:10:05;;;;;;;1.42;1.10;;;11.20;99.90;;;;;;5012972;28;20466;-82
2022/07/13 09:12:32;;;;;;;1.20;1.10;;;11.30;99.90;;;;;;5014279;28;20398;-83
2022/07/13 09:15:08;;;;;;;1.40;1.00;;;11.30;99.90;;;;;;5017512;28;20379;-82
2022/07/13 09:17:42;;;;;;;1.20;1.10;;;11.20;99.90;;;;;;5070863;28;20371;-82
2022/07/13 09:20:14;;;;;;;2.63;1.10;;;11.20;99.90;;;;;;5074749;28;20405;-82
2022/07/13 09:22:54;;;;;;;1.90;1.10;;;11.10;99.90;;;;;;5074735;28;20374;-82
2022/07/13 09:25:38;;;;;;;1.88;1.00;;;11.00;99.90;;;;;;5074087;28;20440;-83
2022/07/13 09:28:06;;;;;;;2.83;0.90;;;11.00;99.90;;;;;;5074206;28;20857;-81
2022/07/13 09:30:35;;;;;;;1.20;1.10;;;11.00;99.90;;;;;;5074474;28;20373;-82
2022/07/13 09:33:05;;;;;;;0.80;0.80;;;11.00;99.90;;;;;;5075913;28;20393;-84
2022/07/13 09:35:51;;;;;;;0.90;0.90;;;11.20;99.90;;;;;;5075335;28;20463;-83
2022/07/13 09:38:33;;;;;;;1.15;0.90;;;11.00;99.90;;;;;;5075761;28;20378;-82
2022/07/13 09:41:19;;;;;;;1.73;0.93;;;11.10;99.90;;;;;;5075102;28;20438;-83
2022/07/13 09:46:58;;;;;;;1.50;0.90;;;11.20;99.90;;;;;;5074362;28;20445;-84
2022/07/13 09:49:41;;;;;;;1.48;1.00;;;11.10;99.90;;;;;;5073723;28;20884;-82
2022/07/13 09:52:18;;;;;;;0.90;0.90;;;11.10;99.90;;;;;;5073860;28;20374;-82
2022/07/13 09:58:10;;;;;;;1.25;0.90;;;11.10;99.90;;;;;;5074062;28;20370;-82
2022/07/13 10:00:38;;;;;;;1.47;0.97;;;11.20;99.90;;;;;;5074190;28;20814;-81
2022/07/13 10:03:06;;;;;;;1.43;0.87;;;11.20;99.90;;;;;;5073388;28;20971;-83
2022/07/13 10:05:35;;;;;;;1.05;1.00;;;11.20;99.90;;;;;;5072097;28;20457;-81
2022/07/13 10:08:03;;;;;;;2.22;1.50;;;11.10;99.90;;;;;;5072680;28;21019;-83
2022/07/13 10:10:30;;;;;;;3.20;1.80;;;11.10;99.90;;;;;;5073456;28;20374;-83
2022/07/13 10:13:05;;;;;;;2.15;1.27;;;11.10;99.90;;;;;;5073546;28;20388;-83
2022/07/13 10:15:32;;;;;;;5.15;1.45;;;11.00;99.90;;;;;;5073353;28;20718;-82
2022/07/13 10:18:05;;;;;;;5.10;1.25;;;11.10;99.90;;;;;;5073402;28;20931;-82
2022/07/13 10:20:33;;;;;;;9.30;1.20;;;11.00;99.90;;;;;;5073282;28;20370;-82
2022/07/13 10:23:01;;;;;;;3.95;1.27;;;10.90;99.90;;;;;;5071734;28;20837;-82
2022/07/13 10:25:43;;;;;;;4.75;1.50;;;10.90;99.90;;;;;;5072935;28;20379;-83
2022/07/13 10:28:12;;;;;;;1.83;1.13;;;10.90;99.90;;;;;;5073068;28;20919;-82
2022/07/13 10:30:39;;;;;;;3.83;1.30;;;10.80;99.90;;;;;;5072072;28;20436;-83
2022/07/13 10:33:27;;;;;;;1.88;1.20;;;10.80;99.90;;;;;;5072741;28;20811;-82
2022/07/13 10:35:57;;;;;;;2.38;1.35;;;10.70;99.90;;;;;;5072824;28;20779;-83
2022/07/13 10:38:28;;;;;;;1.50;1.40;;;10.60;99.90;;;;;;5072909;28;20386;-84
2022/07/13 10:41:22;;;;;;;4.60;1.70;;;10.50;99.90;;;;;;5073550;28;20374;-84
2022/07/13 10:44:24;;;;;;;2.67;1.90;;;10.40;99.90;;;;;;5073415;28;20370;-82
2022/07/13 10:46:56;;;;;;;2.30;2.10;;;10.30;99.90;;;;;;5072434;28;20881;-81
2022/07/13 10:49:33;;;;;;;4.63;2.25;;;10.30;99.90;;;;;;5072957;28;20434;-83
2022/07/13 10:52:21;;;;;;;4.83;2.40;;;10.20;99.90;;;;;;5071128;28;20473;-81
2022/07/13 10:55:05;;;;;;;4.78;2.40;;;10.20;99.90;;;;;;5072777;28;20707;-82
2022/07/13 10:57:34;;;;;;;5.63;2.50;;;10.10;99.90;;;;;;5071139;28;20393;-82
2022/07/13 11:00:02;;;;;;;7.90;2.65;;;10.10;99.90;;;;;;5071477;28;20451;-82
2022/07/13 11:02:43;;;;;;;6.22;2.50;;;10.10;99.90;;;;;;5072736;28;20386;-82
2022/07/13 11:05:11;;;;;;;7.97;2.47;;;10.10;99.90;;;;;;5072345;28;20378;-81
2022/07/13 11:07:49;;;;;;;2.70;2.50;;;10.10;99.90;;;;;;5072339;28;20984;-81
2022/07/13 11:10:19;;;;;;;2.30;2.10;;;10.10;99.90;;;;;;5071093;28;20362;-82
2022/07/13 11:13:13;;;;;;;4.90;2.13;;;10.10;99.90;;;;;;5072769;28;20417;-83
2022/07/13 11:15:50;;;;;;;2.50;2.30;;;10.10;99.90;;;;;;5073051;28;20429;-83
2022/07/13 11:18:23;;;;;;;4.28;2.20;;;10.10;99.90;;;;;;5072896;28;20850;-83
2022/07/13 11:21:02;;;;;;;2.40;2.20;;;10.10;99.90;;;;;;5072895;28;20445;-84
2022/07/13 11:26:38;;;;;;;4.50;2.50;;;10.10;99.90;;;;;;5072751;28;20524;-82
2022/07/13 11:29:32;;;;;;;3.58;2.40;;;10.10;99.90;;;;;;5072635;28;20373;-82
2022/07/13 11:32:01;;;;;;;2.90;2.67;;;10.10;99.90;;;;;;5073022;28;20398;-83
2022/07/13 11:34:30;;;;;;;3.70;2.60;;;10.10;99.90;;;;;;5072428;28;20748;-83
2022/07/13 11:36:59;;;;;;;4.13;2.13;;;10.10;99.90;;;;;;5070980;28;20390;-82
2022/07/13 11:39:29;;;;;;;2.25;2.05;;;10.20;99.90;;;;;;5072102;28;20449;-83
2022/07/13 11:41:58;;;;;;;2.10;1.90;;;10.20;99.90;;;;;;5075474;28;20377;-83
2022/07/13 11:44:27;;;;;;;2.25;1.83;;;10.20;99.90;;;;;;5074994;28;20431;-82
2022/07/13 11:46:55;;;;;;;2.83;1.67;;;10.10;99.90;;;;;;5076403;28;20470;-81
2022/07/13 11:49:23;;;;;;;1.88;1.50;;;10.10;99.90;;;;;;5076085;28;20373;-82
2022/07/13 11:51:51;;;;;;;1.47;1.37;;;10.10;99.90;;;;;;5076238;28;20457;-81
2022/07/13 11:54:23;;;;;;;1.57;1.43;;;10.10;99.90;;;;;;5076236;28;20370;-82
2022/07/13 11:56:51;;;;;;;1.40;1.30;;;10.10;99.90;;;;;;5076105;28;20445;-81
2022/07/13 11:59:39;;;;;;;2.10;1.50;;;10.00;99.90;;;;;;5076145;28;20384;-81
2022/07/13 12:02:11;;;;;;;1.60;1.40;;;10.10;99.90;;;;;;5076364;28;20396;-82
2022/07/13 12:04:49;;;;;;;1.83;1.33;;;10.10;99.90;;;;;;5076086;28;20842;-83
2022/07/13 12:07:19;;;;;;;1.90;1.20;;;10.10;99.90;;;;;;5076265;28;20878;-82
2022/07/13 12:10:00;;;;;;;2.05;1.10;;;10.20;99.90;;;;;;5076042;28;20369;-82
2022/07/13 12:12:33;;;;;;;1.40;1.30;;;10.20;99.90;;;;;;5075945;28;20806;-83
2022/07/13 12:15:00;;;;;;;2.45;1.80;;;10.20;99.90;;;;;;5076023;28;20366;-82
2022/07/13 12:17:31;;;;;;;1.17;1.10;;;10.20;99.90;;;;;;5075342;28;20738;-82
2022/07/13 12:20:23;;;;;;;1.40;1.30;;;10.20;99.90;;;;;;5075482;28;20464;-81
2022/07/13 12:22:57;;;;;;;1.77;1.05;;;10.30;99.90;;;;;;5077164;28;20386;-81
2022/07/13 12:25:35;;;;;;;1.30;1.00;;;10.30;99.90;;;;;;5078954;28;20773;-82
2022/07/13 12:28:05;;;;;;;1.20;1.10;;;10.30;99.90;;;;;;5076764;28;20465;-81
2022/07/13 12:30:34;;;;;;;1.30;1.08;;;10.30;99.90;;;;;;5076043;28;20366;-81
2022/07/13 12:33:04;;;;;;;1.27;1.05;;;10.30;99.90;;;;;;5075176;28;20388;-80
2022/07/13 12:35:36;;;;;;;1.88;1.10;;;10.30;99.90;;;;;;5075723;28;21001;-80
2022/07/13 12:38:21;;;;;;;1.63;1.20;;;10.20;99.90;;;;;;5113423;27;20359;-80
2022/07/13 12:40:52;;;;;;;1.40;1.05;;;10.10;99.90;;;;;;5127203;27;20393;-81
2022/07/13 12:43:21;;;;;;;1.48;1.17;;;10.10;99.90;;;;;;5104330;28;20467;-82
2022/07/13 12:45:56;;;;;;;1.30;1.20;;;10.00;99.90;;;;;;5108326;28;20375;-81
2022/07/13 12:48:33;;;;;;;1.20;1.10;;;10.10;99.90;;;;;;5111055;28;20380;-82
2022/07/13 12:51:03;;;;;;;1.27;1.15;;;10.10;99.90;;;;;;5108776;28;20425;-81
2022/07/13 12:53:49;;;;;;;1.30;1.20;;;10.10;99.90;;;;;;5107705;28;20440;-81
2022/07/13 12:56:18;;;;;;;1.10;1.10;;;10.00;99.90;;;;;;5109383;28;20456;-80
2022/07/13 12:58:49;;;;;;;2.00;1.05;;;10.00;99.90;;;;;;5107146;28;20720;-82
2022/07/13 13:01:36;;;;;;;2.47;1.23;;;9.90;99.90;;;;;;5107779;28;20363;-82
2022/07/13 13:04:11;;;;;;;1.38;1.27;;;10.00;99.90;;;;;;5108494;28;20380;-84
2022/07/13 13:06:41;;;;;;;1.40;1.30;;;10.00;99.90;;;;;;5107667;28;20393;-81
2022/07/13 13:09:16;;;;;;;1.50;1.40;;;10.10;99.90;;;;;;5113487;28;20466;-82
2022/07/13 13:11:46;;;;;;;1.42;1.33;;;10.10;99.90;;;;;;5103654;28;20379;-80
2022/07/13 13:14:15;;;;;;;1.95;1.30;;;10.00;99.90;;;;;;5117255;27;20424;-81
2022/07/13 13:16:42;;;;;;;1.30;1.20;;;10.10;99.90;;;;;;5110003;28;20399;-81
2022/07/13 13:19:10;;;;;;;1.50;1.40;;;10.10;99.90;;;;;;5108519;28;20952;-80
2022/07/13 13:21:38;;;;;;;1.50;1.40;;;10.10;99.90;;;;;;5107588;28;20437;-80
2022/07/13 13:24:09;;;;;;;1.52;1.20;;;10.00;99.90;;;;;;5107377;28;20728;-81
2022/07/13 13:26:44;;;;;;;1.30;1.20;;;10.20;99.90;;;;;;5093067;28;21083;-81
2022/07/13 13:31:58;;;;;;;1.30;1.20;;;10.20;99.90;;;;;;5104438;28;20436;-81